Terminal Aerodrome Forecast
Issued by NWS Cleveland, OH

Home | Current Version | Previous Version | Text Only | Print | Product List | Glossary Off
Versions: 1 2 3 4 5 6 7 8 9 10 11 12 13 14 15 16 17 18

597
FTUS41 KCLE 241124
TAFERI
TAF
KERI 241124Z 2412/2512 10008KT 6SM BR SCT005 BKN060
      TEMPO 2412/2414 3SM -SHRA BR BKN015
     FM241500 18014G24KT P6SM SCT025 BKN100
     FM242100 19014KT P6SM SCT050 BKN200
     FM250600 19015G22KT P6SM VCTS SCT045CB BKN150=

USA.gov is the U.S. government's official web portal to all federal, state and local government web resources and services.